Time;durP1;ratioP1;P1;durP2;ratioP2;P2;SDS_P1;SDS_P2;PMS_P1;PMS_P2;Temp;Humidity;BMP_temperature;BMP_pressure;BME280_temperature;BME280_humidity;BME280_pressure;Samples;Min_cycle;Max_cycle;Signal;HPM_P1;HPM_P2
2021/05/09 00:01:27;;;;;;;8.30;4.00;;;10.10;84.40;;;;;;5051374;28;20071;-67
2021/05/09 00:03:54;;;;;;;7.23;3.83;;;10.10;84.50;;;;;;5049591;28;20437;-67
2021/05/09 00:06:20;;;;;;;7.60;4.00;;;10.10;84.60;;;;;;5051401;28;20039;-66
2021/05/09 00:08:46;;;;;;;7.10;4.13;;;10.20;84.70;;;;;;5050162;28;20041;-66
2021/05/09 00:11:12;;;;;;;8.27;4.30;;;10.10;84.50;;;;;;5050766;28;20088;-67
2021/05/09 00:13:38;;;;;;;8.67;4.60;;;10.10;84.60;;;;;;5050738;28;20033;-67
2021/05/09 00:16:04;;;;;;;7.97;4.30;;;10.10;84.80;;;;;;5050767;28;20049;-67
2021/05/09 00:18:30;;;;;;;8.50;4.20;;;10.20;84.90;;;;;;5051247;28;20540;-67
2021/05/09 00:20:56;;;;;;;6.50;3.93;;;10.20;84.70;;;;;;5051011;28;20128;-67
2021/05/09 00:23:23;;;;;;;8.03;3.93;;;10.20;84.60;;;;;;5048784;28;20512;-67
2021/05/09 00:25:48;;;;;;;6.97;3.70;;;10.30;84.80;;;;;;5051106;28;20037;-68
2021/05/09 00:28:14;;;;;;;6.65;4.05;;;10.20;84.70;;;;;;5050889;28;20041;-68
2021/05/09 00:30:40;;;;;;;7.18;4.07;;;10.30;84.80;;;;;;5049673;28;20041;-68
2021/05/09 00:33:06;;;;;;;6.88;3.83;;;10.30;84.70;;;;;;5049280;28;20033;-67
2021/05/09 00:35:31;;;;;;;7.33;3.87;;;10.30;84.50;;;;;;5050447;28;20051;-68
2021/05/09 00:37:57;;;;;;;6.30;3.83;;;10.30;84.50;;;;;;5050839;28;20044;-67
2021/05/09 00:40:23;;;;;;;6.85;4.00;;;10.30;84.60;;;;;;5050804;28;20041;-68
2021/05/09 00:42:48;;;;;;;7.97;3.88;;;10.40;84.50;;;;;;5050233;28;20063;-67
2021/05/09 00:45:14;;;;;;;7.07;3.95;;;10.40;84.50;;;;;;5049412;28;20033;-68
2021/05/09 00:47:40;;;;;;;8.32;3.70;;;10.40;84.50;;;;;;5032813;28;20048;-67
2021/05/09 00:50:07;;;;;;;7.65;3.90;;;10.40;84.60;;;;;;5050952;28;20041;-68
2021/05/09 00:52:39;;;;;;;7.43;4.15;;;10.40;85.00;;;;;;5050821;28;20037;-68
2021/05/09 00:55:08;;;;;;;7.65;4.10;;;10.40;84.40;;;;;;5049896;28;20044;-68
2021/05/09 00:57:36;;;;;;;7.38;4.00;;;10.40;84.40;;;;;;5050884;28;20447;-67
2021/05/09 01:00:05;;;;;;;7.82;4.07;;;10.50;84.50;;;;;;5050377;28;20120;-67
2021/05/09 01:02:32;;;;;;;7.27;3.90;;;10.40;84.50;;;;;;5049603;28;20112;-67
2021/05/09 01:04:59;;;;;;;7.22;3.80;;;10.50;84.50;;;;;;5050452;28;20051;-68
2021/05/09 01:07:25;;;;;;;7.35;3.65;;;10.50;84.50;;;;;;5049177;28;20033;-67
2021/05/09 01:09:51;;;;;;;7.22;3.90;;;10.50;84.40;;;;;;5049499;28;20045;-68
2021/05/09 01:12:18;;;;;;;6.22;3.60;;;10.50;84.50;;;;;;5050617;28;20040;-67
2021/05/09 01:14:45;;;;;;;5.90;3.47;;;10.50;84.40;;;;;;5048650;28;20410;-68
2021/05/09 01:17:13;;;;;;;5.90;3.40;;;10.50;84.30;;;;;;5049598;28;20033;-68
2021/05/09 01:19:40;;;;;;;6.85;3.13;;;10.50;84.30;;;;;;5050439;28;20493;-67
2021/05/09 01:22:12;;;;;;;6.57;3.78;;;10.50;84.30;;;;;;5050681;28;20029;-67
2021/05/09 01:24:39;;;;;;;7.05;3.58;;;10.60;84.40;;;;;;5049727;28;20405;-68
2021/05/09 01:27:06;;;;;;;5.88;3.22;;;10.60;84.20;;;;;;5049371;28;20025;-67
2021/05/09 01:29:32;;;;;;;7.07;3.90;;;10.60;84.20;;;;;;5050235;28;20357;-69
2021/05/09 01:32:00;;;;;;;7.32;3.25;;;10.60;84.20;;;;;;5032818;28;20393;-67
2021/05/09 01:34:33;;;;;;;5.53;3.20;;;10.60;84.30;;;;;;5048651;28;20037;-68
2021/05/09 01:36:59;;;;;;;6.60;3.65;;;10.60;84.20;;;;;;5050195;28;20041;-67
2021/05/09 01:39:25;;;;;;;7.07;3.30;;;10.60;84.20;;;;;;5050434;28;20467;-67
2021/05/09 01:41:51;;;;;;;6.90;3.45;;;10.70;84.20;;;;;;5048634;28;20124;-67
2021/05/09 01:44:16;;;;;;;6.38;3.33;;;10.70;84.20;;;;;;5048694;28;20076;-67
2021/05/09 01:46:43;;;;;;;7.50;3.50;;;10.70;84.10;;;;;;5049235;28;20033;-67
2021/05/09 01:49:09;;;;;;;6.82;3.25;;;10.70;84.00;;;;;;5048797;28;20144;-68
2021/05/09 01:51:34;;;;;;;6.30;3.15;;;10.70;84.50;;;;;;5052623;28;20053;-67
2021/05/09 01:54:00;;;;;;;6.32;3.40;;;10.70;84.00;;;;;;5053455;28;20488;-67
2021/05/09 01:56:28;;;;;;;6.13;3.47;;;10.70;83.90;;;;;;5052252;28;20033;-67
2021/05/09 01:58:56;;;;;;;5.95;2.97;;;10.70;83.90;;;;;;5052591;28;20404;-67
2021/05/09 02:01:27;;;;;;;6.50;3.50;;;10.80;84.00;;;;;;5051970;28;20082;-68
2021/05/09 02:04:00;;;;;;;5.72;3.33;;;10.80;83.90;;;;;;5053493;28;20033;-67
2021/05/09 02:06:29;;;;;;;5.38;3.13;;;10.80;83.80;;;;;;5026170;28;20120;-67
2021/05/09 02:08:55;;;;;;;6.95;3.50;;;10.80;83.90;;;;;;5033471;28;20120;-68
2021/05/09 02:11:36;;;;;;;5.80;2.95;;;10.80;84.00;;;;;;5033404;28;20033;-67
2021/05/09 02:14:05;;;;;;;6.47;3.20;;;10.80;84.00;;;;;;5016166;28;20397;-67
2021/05/09 02:16:34;;;;;;;6.10;3.03;;;10.80;83.90;;;;;;5033256;28;20087;-67
2021/05/09 02:19:03;;;;;;;5.75;3.35;;;10.80;83.90;;;;;;5032597;28;20061;-67
2021/05/09 02:21:38;;;;;;;6.10;3.30;;;10.80;83.90;;;;;;5031775;28;20083;-67
2021/05/09 02:24:04;;;;;;;8.05;3.30;;;10.80;83.90;;;;;;5033297;28;20057;-68
2021/05/09 02:26:30;;;;;;;6.00;3.15;;;10.90;84.00;;;;;;5015782;28;20033;-67
2021/05/09 02:28:56;;;;;;;6.13;3.00;;;10.90;83.90;;;;;;5031630;28;20033;-67
2021/05/09 02:31:22;;;;;;;6.25;3.00;;;10.90;83.70;;;;;;5032234;28;20044;-67
2021/05/09 02:33:48;;;;;;;7.53;3.65;;;10.90;83.70;;;;;;5031417;28;20037;-67
2021/05/09 02:36:13;;;;;;;7.63;3.10;;;11.00;83.80;;;;;;5032926;28;20498;-67
2021/05/09 02:38:39;;;;;;;5.75;2.80;;;11.00;83.60;;;;;;5033204;28;20575;-67
2021/05/09 02:41:05;;;;;;;6.65;3.28;;;11.00;83.60;;;;;;5031527;28;20041;-67
2021/05/09 02:43:31;;;;;;;6.07;3.10;;;11.00;83.90;;;;;;5032372;28;20112;-67
2021/05/09 02:45:57;;;;;;;6.13;3.10;;;11.00;83.40;;;;;;5033132;28;20038;-67
2021/05/09 02:48:22;;;;;;;6.03;2.90;;;11.10;83.40;;;;;;5031529;28;20052;-68
2021/05/09 02:50:48;;;;;;;5.90;3.08;;;11.00;83.20;;;;;;5031630;28;20034;-67
2021/05/09 02:53:14;;;;;;;6.40;3.03;;;11.00;83.10;;;;;;5031088;28;20575;-67
2021/05/09 02:55:41;;;;;;;6.60;3.10;;;11.00;83.00;;;;;;5030814;28;20033;-68
2021/05/09 02:58:06;;;;;;;6.32;3.28;;;11.00;83.00;;;;;;5032698;28;20034;-67
2021/05/09 03:00:34;;;;;;;5.47;2.90;;;11.00;82.90;;;;;;5032334;28;20224;-68
2021/05/09 03:02:59;;;;;;;5.72;3.20;;;11.00;82.90;;;;;;5032072;28;20511;-67
2021/05/09 03:05:26;;;;;;;6.55;3.00;;;10.90;82.80;;;;;;5031549;28;20043;-67
2021/05/09 03:07:52;;;;;;;7.10;3.15;;;10.90;82.80;;;;;;5032356;28;20552;-67
2021/05/09 03:10:19;;;;;;;5.90;3.17;;;10.80;82.70;;;;;;5031304;28;20029;-68
2021/05/09 03:12:44;;;;;;;7.55;3.30;;;10.90;82.90;;;;;;5031769;28;20045;-67
2021/05/09 03:15:11;;;;;;;7.65;3.13;;;10.80;83.00;;;;;;5030581;28;20098;-67
2021/05/09 03:17:36;;;;;;;7.07;3.35;;;10.80;83.00;;;;;;5031117;28;20045;-67
2021/05/09 03:20:03;;;;;;;5.90;3.10;;;10.80;83.10;;;;;;5030430;28;20064;-68
2021/05/09 03:22:29;;;;;;;7.30;3.47;;;10.80;83.10;;;;;;5032460;28;20517;-68
2021/05/09 03:24:54;;;;;;;6.57;3.05;;;10.80;83.20;;;;;;5031516;28;20033;-67
2021/05/09 03:27:20;;;;;;;6.50;3.00;;;10.80;83.20;;;;;;5031907;28;20036;-68
2021/05/09 03:29:46;;;;;;;5.10;2.70;;;10.80;83.30;;;;;;5032128;28;20120;-68
2021/05/09 03:32:11;;;;;;;6.93;3.00;;;10.80;83.30;;;;;;5031743;28;20065;-68
2021/05/09 03:34:37;;;;;;;6.13;3.08;;;10.80;83.20;;;;;;5031502;28;20057;-68
2021/05/09 03:37:02;;;;;;;5.75;2.97;;;10.80;83.20;;;;;;5032049;28;20026;-68
2021/05/09 03:39:28;;;;;;;5.53;2.72;;;10.80;83.20;;;;;;5031607;28;20452;-68
2021/05/09 03:41:53;;;;;;;6.03;2.85;;;10.80;83.20;;;;;;5032019;28;20084;-68
2021/05/09 03:44:19;;;;;;;7.20;3.05;;;10.90;83.30;;;;;;5030924;28;20030;-67
2021/05/09 03:46:45;;;;;;;5.88;3.05;;;10.90;83.20;;;;;;5030684;28;20033;-67
2021/05/09 03:49:10;;;;;;;7.55;3.42;;;10.90;83.30;;;;;;5031830;28;20037;-67
2021/05/09 03:51:38;;;;;;;6.45;2.95;;;11.00;83.20;;;;;;5029943;28;20026;-68
2021/05/09 03:54:04;;;;;;;6.57;3.22;;;11.00;83.20;;;;;;5031182;28;20030;-67
2021/05/09 03:56:30;;;;;;;6.03;2.90;;;11.00;83.00;;;;;;5031540;28;20046;-67
2021/05/09 03:58:55;;;;;;;6.63;2.92;;;11.00;83.00;;;;;;5051330;28;20037;-68
2021/05/09 04:01:21;;;;;;;5.50;2.97;;;11.10;83.00;;;;;;5051577;28;20432;-67
2021/05/09 04:03:46;;;;;;;6.38;3.00;;;11.10;82.90;;;;;;5050394;28;20064;-67
2021/05/09 04:06:12;;;;;;;5.55;2.80;;;11.10;83.00;;;;;;5051500;28;20386;-67
2021/05/09 04:08:38;;;;;;;5.80;2.90;;;11.20;83.00;;;;;;5051402;28;20045;-68
2021/05/09 04:11:03;;;;;;;6.68;2.90;;;11.20;82.90;;;;;;5050786;28;20029;-67
2021/05/09 04:13:51;;;;;;;7.60;3.13;;;11.20;82.90;;;;;;5050280;28;20493;-65
2021/05/09 04:16:17;;;;;;;4.57;2.53;;;11.20;82.80;;;;;;5051026;28;20033;-67
2021/05/09 04:18:43;;;;;;;5.72;2.55;;;11.30;82.80;;;;;;5051389;28;20029;-65
2021/05/09 04:21:09;;;;;;;5.05;2.95;;;11.30;82.90;;;;;;5050489;28;20111;-66
2021/05/09 04:23:35;;;;;;;5.20;2.63;;;11.40;82.90;;;;;;5050652;28;20041;-66
2021/05/09 04:26:01;;;;;;;5.45;2.80;;;11.40;82.70;;;;;;5049866;28;20036;-65
2021/05/09 04:28:27;;;;;;;5.18;2.67;;;11.50;82.70;;;;;;5050725;28;20063;-65
2021/05/09 04:30:52;;;;;;;6.60;2.80;;;11.60;82.70;;;;;;5051189;28;20041;-66
2021/05/09 04:33:25;;;;;;;6.65;2.95;;;11.70;82.60;;;;;;5050027;28;20033;-66
2021/05/09 04:35:51;;;;;;;6.18;2.70;;;11.70;82.40;;;;;;5049675;28;20033;-66
2021/05/09 04:38:17;;;;;;;7.25;2.80;;;11.70;82.20;;;;;;5051070;28;20528;-65
2021/05/09 04:40:43;;;;;;;5.60;2.47;;;11.80;82.00;;;;;;5050573;28;20525;-67
2021/05/09 04:43:11;;;;;;;6.22;2.80;;;11.80;81.90;;;;;;5050509;28;20112;-65
2021/05/09 04:45:37;;;;;;;5.53;2.65;;;11.90;81.80;;;;;;5051124;28;20041;-66
2021/05/09 04:48:04;;;;;;;5.40;2.45;;;12.00;81.90;;;;;;5049239;28;20036;-65
2021/05/09 04:50:30;;;;;;;5.53;2.42;;;12.10;81.90;;;;;;5049584;28;20052;-66
2021/05/09 04:52:55;;;;;;;6.45;2.20;;;12.20;81.80;;;;;;5050009;28;20382;-66
2021/05/09 04:55:21;;;;;;;5.75;2.60;;;12.30;81.60;;;;;;5050740;28;20074;-66
2021/05/09 04:57:47;;;;;;;4.90;2.28;;;12.40;81.60;;;;;;5051009;28;20115;-65
2021/05/09 05:00:14;;;;;;;4.57;2.17;;;12.60;81.50;;;;;;5049181;28;20386;-65
2021/05/09 05:02:44;;;;;;;5.65;2.22;;;12.70;81.20;;;;;;5050681;28;20065;-65
2021/05/09 05:05:10;;;;;;;5.13;2.58;;;12.80;81.30;;;;;;5049780;28;20044;-65
2021/05/09 05:07:36;;;;;;;5.03;2.30;;;12.90;80.40;;;;;;5050760;28;20119;-65
2021/05/09 05:10:03;;;;;;;4.40;2.10;;;13.00;80.20;;;;;;5049256;28;20148;-65
2021/05/09 05:12:29;;;;;;;5.28;2.10;;;13.10;80.00;;;;;;5050472;28;20040;-65
2021/05/09 05:14:54;;;;;;;5.15;2.33;;;13.30;79.90;;;;;;5050445;28;20037;-67
2021/05/09 05:17:21;;;;;;;4.63;2.20;;;13.50;79.80;;;;;;5049062;28;20405;-64
2021/05/09 05:19:46;;;;;;;5.50;2.17;;;13.80;79.30;;;;;;5048965;28;20029;-65
2021/05/09 05:22:12;;;;;;;5.35;2.33;;;14.00;79.50;;;;;;5049569;28;20457;-66
2021/05/09 05:24:38;;;;;;;3.90;1.85;;;14.40;80.30;;;;;;5050689;28;20029;-65
2021/05/09 05:27:04;;;;;;;5.00;1.90;;;14.90;79.60;;;;;;5054548;28;20048;-65
2021/05/09 05:29:30;;;;;;;3.60;1.73;;;15.40;78.50;;;;;;5052787;28;20112;-66
2021/05/09 05:31:55;;;;;;;3.40;1.77;;;15.90;77.80;;;;;;5054447;28;20116;-66
2021/05/09 05:34:21;;;;;;;4.35;1.90;;;16.60;78.80;;;;;;5052162;28;20052;-66
2021/05/09 05:36:47;;;;;;;3.72;1.83;;;17.30;77.80;;;;;;5053865;28;20519;-66
2021/05/09 05:39:13;;;;;;;5.65;1.75;;;17.90;76.60;;;;;;5054234;28;20037;-66
2021/05/09 05:41:39;;;;;;;3.88;1.50;;;18.80;75.50;;;;;;5053999;28;20041;-66
2021/05/09 05:44:06;;;;;;;5.10;1.80;;;19.30;72.20;;;;;;5053114;28;20048;-66
2021/05/09 05:46:32;;;;;;;4.53;1.60;;;20.00;72.40;;;;;;5053940;28;20033;-67
2021/05/09 05:48:58;;;;;;;3.83;1.70;;;20.90;70.30;;;;;;5052030;28;20497;-67
2021/05/09 05:51:23;;;;;;;4.38;1.80;;;21.80;67.40;;;;;;5052599;28;20098;-67
2021/05/09 05:53:54;;;;;;;3.85;1.60;;;22.60;65.20;;;;;;5053253;28;20071;-67
2021/05/09 05:56:20;;;;;;;3.47;1.52;;;23.40;62.60;;;;;;5053603;28;20512;-68
2021/05/09 05:58:46;;;;;;;4.35;1.42;;;24.10;59.90;;;;;;5053989;28;20025;-68
2021/05/09 06:01:11;;;;;;;4.32;1.60;;;24.70;57.90;;;;;;5051891;28;20044;-68
2021/05/09 06:03:37;;;;;;;3.05;1.27;;;25.20;56.00;;;;;;5052993;28;20065;-68
2021/05/09 06:06:03;;;;;;;3.47;1.67;;;25.80;54.10;;;;;;5053613;28;20044;-67
2021/05/09 06:08:28;;;;;;;3.55;1.63;;;26.20;52.10;;;;;;5051587;28;20037;-68
2021/05/09 06:10:54;;;;;;;3.75;1.50;;;26.50;49.20;;;;;;5052210;28;20179;-68
2021/05/09 06:13:23;;;;;;;3.30;1.40;;;26.90;48.10;;;;;;5052994;28;20063;-68
2021/05/09 06:15:49;;;;;;;2.33;1.40;;;27.30;45.90;;;;;;5053058;28;20037;-68
2021/05/09 06:18:15;;;;;;;2.13;1.25;;;27.60;44.90;;;;;;5052018;28;20120;-70
2021/05/09 06:20:41;;;;;;;3.42;1.40;;;27.80;43.70;;;;;;5052845;28;20133;-67
2021/05/09 06:23:08;;;;;;;3.78;1.48;;;28.20;43.00;;;;;;5051370;28;20037;-69
2021/05/09 06:25:34;;;;;;;2.55;1.30;;;28.80;42.00;;;;;;5053186;28;20127;-70
2021/05/09 06:28:00;;;;;;;4.18;1.35;;;29.20;40.90;;;;;;5052736;28;20112;-70
2021/05/09 06:30:26;;;;;;;3.85;1.50;;;29.60;39.40;;;;;;5053117;28;20045;-70
2021/05/09 06:32:52;;;;;;;3.95;1.55;;;29.70;38.10;;;;;;5052341;28;20041;-70
2021/05/09 06:35:18;;;;;;;4.68;1.50;;;29.70;37.60;;;;;;5053104;28;20041;-70
2021/05/09 06:37:44;;;;;;;3.10;1.40;;;30.30;37.30;;;;;;5052378;28;20064;-70
2021/05/09 06:40:11;;;;;;;3.72;1.50;;;30.70;36.40;;;;;;5050997;28;20033;-69
2021/05/09 06:42:36;;;;;;;3.58;1.30;;;30.80;35.10;;;;;;5052927;28;20095;-70
2021/05/09 06:45:13;;;;;;;4.07;1.42;;;31.20;34.40;;;;;;5051954;28;20441;-68
2021/05/09 06:47:39;;;;;;;4.22;1.50;;;31.60;33.70;;;;;;5052913;28;20033;-71
2021/05/09 06:50:05;;;;;;;4.05;1.42;;;32.30;33.70;;;;;;5052768;28;20370;-70
2021/05/09 06:52:31;;;;;;;3.22;1.30;;;33.10;33.20;;;;;;5052276;28;20481;-70
2021/05/09 06:54:57;;;;;;;4.35;1.42;;;33.70;32.00;;;;;;5050740;28;20037;-71
2021/05/09 06:57:22;;;;;;;3.75;1.30;;;33.90;31.10;;;;;;5051124;28;20034;-72
2021/05/09 06:59:48;;;;;;;2.97;1.20;;;34.20;30.70;;;;;;5031129;28;20026;-70
2021/05/09 07:02:14;;;;;;;4.60;1.45;;;34.50;30.20;;;;;;5030756;28;20160;-71
2021/05/09 07:04:39;;;;;;;3.70;1.25;;;35.10;30.00;;;;;;5031688;28;20037;-69
2021/05/09 07:07:05;;;;;;;2.95;1.13;;;35.80;29.30;;;;;;5032475;28;20025;-70
2021/05/09 07:09:30;;;;;;;3.83;1.40;;;36.30;28.70;;;;;;5031109;28;20041;-72
2021/05/09 07:11:56;;;;;;;3.80;1.35;;;36.60;28.50;;;;;;5032511;28;20038;-71
2021/05/09 07:14:22;;;;;;;2.78;1.13;;;37.00;28.00;;;;;;5032125;28;20129;-70
2021/05/09 07:16:49;;;;;;;3.70;1.33;;;37.50;27.70;;;;;;5031900;28;20493;-71
2021/05/09 07:19:15;;;;;;;7.97;1.40;;;37.40;26.80;;;;;;5032507;28;20041;-71
2021/05/09 07:21:46;;;;;;;3.63;1.35;;;36.70;26.60;;;;;;5032215;28;20501;-71
2021/05/09 07:24:12;;;;;;;4.03;1.30;;;35.90;26.60;;;;;;5030056;28;20544;-70
2021/05/09 07:26:38;;;;;;;4.10;1.40;;;35.60;27.00;;;;;;5049751;22;20136;-68
2021/05/09 07:29:04;;;;;;;3.70;1.30;;;36.00;27.40;;;;;;5031712;28;20080;-68
2021/05/09 07:31:32;;;;;;;4.57;1.33;;;36.80;27.30;;;;;;5031967;28;20062;-68
2021/05/09 07:33:58;;;;;;;3.25;1.27;;;37.60;26.90;;;;;;5031501;28;20116;-68
2021/05/09 07:36:23;;;;;;;2.53;1.17;;;38.30;26.20;;;;;;5029792;28;20041;-68
2021/05/09 07:38:49;;;;;;;4.72;1.30;;;38.70;26.00;;;;;;5031909;28;20116;-68
2021/05/09 07:41:15;;;;;;;3.03;1.20;;;39.60;25.80;;;;;;5030108;28;20041;-68
2021/05/09 07:43:41;;;;;;;3.40;1.25;;;40.00;25.10;;;;;;5029923;28;20038;-68
2021/05/09 07:46:06;;;;;;;4.82;1.35;;;40.50;24.60;;;;;;5031520;28;20037;-69
2021/05/09 07:48:32;;;;;;;3.05;1.25;;;40.50;24.40;;;;;;5030332;28;20405;-68
2021/05/09 07:50:59;;;;;;;4.07;1.40;;;40.10;24.10;;;;;;5031633;28;20041;-69
2021/05/09 07:53:25;;;;;;;2.83;1.25;;;40.10;24.30;;;;;;5030730;28;20091;-66
2021/05/09 07:55:51;;;;;;;3.13;1.10;;;40.20;24.50;;;;;;5029739;28;20038;-68
2021/05/09 07:58:21;;;;;;;3.95;1.20;;;40.50;24.10;;;;;;5031437;28;20096;-69
2021/05/09 08:00:48;;;;;;;2.72;1.10;;;41.10;23.80;;;;;;5030752;28;20037;-68
2021/05/09 08:03:14;;;;;;;4.30;1.10;;;41.30;23.80;;;;;;5028889;28;20033;-69
2021/05/09 08:05:40;;;;;;;3.67;1.30;;;41.40;23.60;;;;;;5030852;28;20393;-68
2021/05/09 08:08:06;;;;;;;3.75;1.13;;;41.70;23.50;;;;;;5029884;28;20037;-69
2021/05/09 08:10:35;;;;;;;2.72;1.10;;;42.20;23.30;;;;;;5031240;28;20048;-68
2021/05/09 08:13:05;;;;;;;3.10;1.20;;;42.60;23.20;;;;;;5030555;28;20041;-69
2021/05/09 08:15:32;;;;;;;4.35;1.30;;;43.00;23.00;;;;;;5031146;28;20045;-69
2021/05/09 08:17:58;;;;;;;4.20;1.27;;;43.20;22.80;;;;;;5030860;28;20041;-69
2021/05/09 08:20:24;;;;;;;3.35;1.15;;;43.40;22.60;;;;;;5031269;28;20041;-69
2021/05/09 08:22:51;;;;;;;3.58;1.15;;;43.30;22.40;;;;;;5030668;28;20061;-68
2021/05/09 08:25:18;;;;;;;3.25;1.15;;;43.00;22.30;;;;;;5030173;28;20472;-68
2021/05/09 08:27:45;;;;;;;2.63;0.90;;;42.50;22.50;;;;;;5031188;28;20048;-69
2021/05/09 08:30:13;;;;;;;4.63;1.10;;;43.00;22.80;;;;;;5031070;28;20302;-69
2021/05/09 08:32:39;;;;;;;2.38;1.05;;;43.80;22.50;;;;;;5030775;28;20103;-69
2021/05/09 08:35:07;;;;;;;4.18;1.27;;;44.40;22.20;;;;;;5030512;28;20336;-69
2021/05/09 08:37:33;;;;;;;2.50;1.10;;;45.10;22.10;;;;;;5029136;28;20030;-69
2021/05/09 08:39:59;;;;;;;2.58;1.13;;;45.60;22.00;;;;;;5030910;28;20037;-68
2021/05/09 08:42:25;;;;;;;2.80;1.10;;;45.30;21.30;;;;;;5029558;28;20176;-69
2021/05/09 08:44:53;;;;;;;2.42;1.10;;;44.40;21.50;;;;;;5028531;28;20109;-69
2021/05/09 08:47:36;;;;;;;3.05;1.10;;;44.20;21.70;;;;;;5029523;28;20040;-68
2021/05/09 08:50:24;;;;;;;3.65;1.20;;;44.40;21.80;;;;;;5014878;28;20087;-69
2021/05/09 08:52:51;;;;;;;4.70;1.25;;;45.10;21.70;;;;;;5030051;28;20040;-69
2021/05/09 08:55:21;;;;;;;4.15;1.20;;;45.50;21.40;;;;;;5028624;28;20493;-69
2021/05/09 08:57:47;;;;;;;2.28;1.00;;;45.20;21.30;;;;;;5030833;28;20033;-69
2021/05/09 09:00:15;;;;;;;3.28;1.30;;;44.70;21.40;;;;;;5032275;28;20045;-69
2021/05/09 09:02:41;;;;;;;3.38;1.10;;;45.10;21.60;;;;;;5032707;28;20038;-69
2021/05/09 09:05:08;;;;;;;4.07;1.15;;;45.50;21.30;;;;;;5033684;28;20048;-69
2021/05/09 09:07:51;;;;;;;3.17;1.30;;;45.50;21.20;;;;;;5034639;28;20041;-70
2021/05/09 09:10:28;;;;;;;4.18;1.20;;;45.10;21.00;;;;;;5034284;28;20378;-69
2021/05/09 09:12:54;;;;;;;4.95;1.10;;;44.60;21.20;;;;;;5032855;28;20119;-69
2021/05/09 09:15:20;;;;;;;3.42;1.05;;;44.70;21.40;;;;;;5033941;28;20053;-68
2021/05/09 09:17:46;;;;;;;4.28;1.23;;;45.00;21.40;;;;;;5033387;28;20492;-69
2021/05/09 09:20:18;;;;;;;3.95;1.25;;;45.40;21.80;;;;;;5034534;28;20124;-69
2021/05/09 09:22:53;;;;;;;4.80;1.27;;;46.00;21.20;;;;;;5033011;28;20468;-69
2021/05/09 09:25:21;;;;;;;3.95;1.10;;;46.00;20.90;;;;;;5033986;28;20041;-69
2021/05/09 09:27:48;;;;;;;3.97;1.10;;;46.00;20.80;;;;;;5033888;28;20029;-69
2021/05/09 09:30:16;;;;;;;2.47;1.10;;;45.80;20.70;;;;;;5034197;28;20113;-70
2021/05/09 09:33:01;;;;;;;4.38;1.20;;;45.90;20.90;;;;;;5034224;28;20125;-69
2021/05/09 09:35:30;;;;;;;2.28;1.05;;;46.30;21.00;;;;;;5033643;28;20057;-69
2021/05/09 09:37:56;;;;;;;2.30;0.90;;;46.60;20.80;;;;;;5033976;28;20060;-69
2021/05/09 09:40:22;;;;;;;2.42;1.10;;;46.70;20.60;;;;;;5032195;28;20060;-69
2021/05/09 09:42:49;;;;;;;3.30;1.10;;;46.60;20.70;;;;;;5033603;28;20087;-69
2021/05/09 09:45:20;;;;;;;4.03;1.10;;;46.90;20.70;;;;;;5033525;28;20044;-69
2021/05/09 09:47:50;;;;;;;3.67;1.33;;;46.90;20.60;;;;;;5033646;28;20075;-69
2021/05/09 09:50:41;;;;;;;4.10;1.20;;;47.10;20.70;;;;;;5033729;28;20024;-69
2021/05/09 09:53:28;;;;;;;3.38;1.10;;;46.70;20.20;;;;;;5032611;28;20128;-68
2021/05/09 09:56:04;;;;;;;3.45;1.10;;;46.30;20.70;;;;;;5033899;28;20037;-70
2021/05/09 09:58:46;;;;;;;4.43;1.20;;;46.50;20.50;;;;;;5031984;28;20528;-69
2021/05/09 10:01:18;;;;;;;3.50;1.05;;;46.50;20.30;;;;;;5031719;28;20489;-69
2021/05/09 10:03:45;;;;;;;3.50;1.02;;;46.20;20.40;;;;;;5030942;28;20021;-69
2021/05/09 10:06:11;;;;;;;3.13;1.20;;;46.20;20.50;;;;;;5032109;28;20029;-69
2021/05/09 10:08:37;;;;;;;2.67;0.90;;;47.00;20.80;;;;;;5033065;28;20043;-70
2021/05/09 10:11:05;;;;;;;4.03;1.13;;;48.30;20.60;;;;;;5014832;28;20041;-69
2021/05/09 10:13:32;;;;;;;4.30;1.10;;;48.70;20.20;;;;;;5032366;28;20041;-68
2021/05/09 10:15:59;;;;;;;3.83;1.08;;;48.70;19.80;;;;;;5033281;28;20042;-69
2021/05/09 10:18:26;;;;;;;3.10;1.25;;;48.30;19.90;;;;;;5032052;28;20398;-69
2021/05/09 10:20:52;;;;;;;3.78;1.10;;;48.00;20.00;;;;;;5032841;28;20034;-69
2021/05/09 10:23:18;;;;;;;4.32;1.27;;;47.90;19.70;;;;;;5032648;28;20111;-70
2021/05/09 10:25:45;;;;;;;2.95;1.20;;;47.10;19.80;;;;;;5032113;28;20052;-69
2021/05/09 10:28:11;;;;;;;3.30;1.00;;;46.70;20.10;;;;;;5033045;28;20041;-70
2021/05/09 10:30:49;;;;;;;7.40;1.30;;;46.80;20.10;;;;;;5033156;28;20034;-69
2021/05/09 10:33:47;;;;;;;3.85;1.13;;;46.60;20.00;;;;;;5032351;28;20046;-69
2021/05/09 10:36:18;;;;;;;4.07;1.00;;;46.00;20.10;;;;;;4998518;28;20061;-70
2021/05/09 10:39:18;;;;;;;2.28;1.02;;;45.90;20.30;;;;;;5033037;28;20052;-69
2021/05/09 10:41:53;;;;;;;3.78;0.93;;;45.40;19.90;;;;;;5032624;28;20474;-69
2021/05/09 10:44:37;;;;;;;2.58;1.00;;;43.60;20.30;;;;;;5031097;28;20037;-69
2021/05/09 10:47:11;;;;;;;4.05;1.25;;;42.90;21.30;;;;;;5032283;28;20062;-69
2021/05/09 10:49:37;;;;;;;3.13;1.30;;;43.20;21.70;;;;;;5032672;28;20033;-69
2021/05/09 10:52:40;;;;;;;3.72;1.38;;;44.70;21.70;;;;;;5032394;28;20021;-69
2021/05/09 10:55:35;;;;;;;3.15;1.10;;;46.40;21.30;;;;;;5030207;28;20041;-69
2021/05/09 10:58:01;;;;;;;4.10;1.00;;;47.40;20.80;;;;;;5032008;28;20040;-70
2021/05/09 11:00:27;;;;;;;4.65;1.20;;;47.80;20.60;;;;;;5032656;28;20034;-69
2021/05/09 11:02:53;;;;;;;3.88;1.20;;;48.30;20.20;;;;;;5030369;28;20490;-70
2021/05/09 11:05:20;;;;;;;2.80;1.08;;;48.60;20.10;;;;;;5030578;28;20508;-69
2021/05/09 11:07:46;;;;;;;2.17;1.00;;;49.00;19.80;;;;;;5032274;28;20480;-69
2021/05/09 11:10:40;;;;;;;3.15;1.23;;;49.20;20.00;;;;;;5031898;28;20108;-69
2021/05/09 11:13:07;;;;;;;5.50;1.25;;;49.20;19.70;;;;;;5030445;28;20497;-69
2021/05/09 11:15:33;;;;;;;3.83;1.10;;;49.30;19.80;;;;;;5031935;28;20108;-69
2021/05/09 11:17:59;;;;;;;2.45;0.95;;;49.30;19.60;;;;;;5032175;28;20112;-69
2021/05/09 11:20:25;;;;;;;3.65;1.10;;;49.30;19.60;;;;;;5031761;28;20129;-70
2021/05/09 11:22:58;;;;;;;2.45;1.00;;;49.60;19.70;;;;;;5031598;28;20034;-70
2021/05/09 11:25:31;;;;;;;3.25;1.23;;;49.80;19.30;;;;;;5031859;28;20092;-70
2021/05/09 11:27:57;;;;;;;5.88;1.17;;;49.60;19.40;;;;;;5031830;28;20116;-69
2021/05/09 11:30:33;;;;;;;2.78;1.00;;;49.30;19.30;;;;;;5031673;28;20049;-69
2021/05/09 11:32:59;;;;;;;3.17;1.15;;;49.00;19.50;;;;;;5031403;28;20155;-69
2021/05/09 11:35:36;;;;;;;2.13;0.90;;;48.60;19.80;;;;;;5031742;28;20129;-69
2021/05/09 11:38:02;;;;;;;2.05;0.98;;;48.90;19.60;;;;;;5030284;28;20037;-69
2021/05/09 11:40:28;;;;;;;3.38;1.10;;;49.40;19.50;;;;;;5031685;28;20038;-70
2021/05/09 11:42:54;;;;;;;2.13;0.93;;;49.90;19.40;;;;;;5013045;28;20045;-69
2021/05/09 11:45:26;;;;;;;3.40;1.10;;;49.70;19.00;;;;;;5031489;28;20124;-70
2021/05/09 11:47:52;;;;;;;2.75;1.00;;;48.40;18.90;;;;;;5031609;28;20452;-69
2021/05/09 11:50:18;;;;;;;2.95;1.00;;;47.70;19.30;;;;;;5031351;28;20026;-69
2021/05/09 11:52:44;;;;;;;1.98;0.90;;;47.50;19.50;;;;;;5030161;28;20061;-69
2021/05/09 11:55:12;;;;;;;3.33;0.90;;;47.70;19.60;;;;;;5030777;28;20045;-68
2021/05/09 11:57:39;;;;;;;2.42;1.10;;;47.80;19.40;;;;;;5031500;28;20034;-69
2021/05/09 12:00:11;;;;;;;3.85;1.10;;;47.60;19.30;;;;;;5031372;28;20033;-70
2021/05/09 12:02:45;;;;;;;1.23;0.82;;;47.20;19.20;;;;;;5031174;28;20045;-70
2021/05/09 12:05:13;;;;;;;3.50;1.20;;;46.20;19.40;;;;;;5030816;28;20037;-69
2021/05/09 12:07:45;;;;;;;3.97;1.10;;;45.10;19.70;;;;;;5030953;28;20038;-69
2021/05/09 12:10:25;;;;;;;3.72;1.10;;;44.10;19.80;;;;;;5031155;28;20029;-70
2021/05/09 12:13:04;;;;;;;3.00;1.17;;;42.70;20.20;;;;;;5030494;28;20029;-68
2021/05/09 12:15:37;;;;;;;4.80;1.20;;;41.00;20.60;;;;;;5030704;28;20048;-67
2021/05/09 12:18:04;;;;;;;3.78;1.10;;;39.50;21.10;;;;;;5029881;28;20045;-67
2021/05/09 12:20:38;;;;;;;2.22;1.00;;;38.20;21.80;;;;;;5031013;28;20034;-67
2021/05/09 12:23:09;;;;;;;2.92;1.25;;;37.30;22.50;;;;;;5030507;28;20039;-68
2021/05/09 12:25:42;;;;;;;4.25;1.10;;;36.70;22.60;;;;;;5029470;28;20030;-68
2021/05/09 12:28:13;;;;;;;5.50;1.20;;;36.30;23.10;;;;;;5028888;28;20029;-67
2021/05/09 12:30:40;;;;;;;3.60;1.20;;;36.00;23.40;;;;;;5030163;28;20474;-67
2021/05/09 12:33:06;;;;;;;2.42;1.30;;;36.30;23.70;;;;;;5028460;28;20075;-68
2021/05/09 12:35:46;;;;;;;2.17;1.13;;;36.60;23.90;;;;;;5029514;28;20033;-67
2021/05/09 12:38:23;;;;;;;2.80;1.20;;;36.50;23.50;;;;;;5007470;28;20030;-67
2021/05/09 12:41:07;;;;;;;2.85;1.10;;;35.60;23.70;;;;;;5009757;28;20117;-67
2021/05/09 12:43:51;;;;;;;3.30;1.23;;;35.10;24.20;;;;;;5009942;28;20117;-67
2021/05/09 12:46:45;;;;;;;4.22;1.40;;;35.30;24.60;;;;;;5010631;28;20065;-67
2021/05/09 12:49:16;;;;;;;4.50;1.30;;;35.60;24.50;;;;;;5009918;28;20038;-67
2021/05/09 12:52:03;;;;;;;3.28;1.35;;;35.50;24.20;;;;;;5018147;28;20116;-67
2021/05/09 12:54:46;;;;;;;4.07;1.30;;;35.00;24.20;;;;;;5029287;28;20041;-68